Time;durP1;ratioP1;P1;durP2;ratioP2;P2;SDS_P1;SDS_P2;PMS_P1;PMS_P2;Temp;Humidity;BMP_temperature;BMP_pressure;BME280_temperature;BME280_humidity;BME280_pressure;Samples;Min_cycle;Max_cycle;Signal;HPM_P1;HPM_P2
2022/07/20 00:02:43;;;;;;;2.87;2.67;;;;;;;33.18;34.70;99152.55;1864863;75;28200;-62
2022/07/20 00:05:32;;;;;;;3.42;2.87;;;;;;;33.20;34.71;99151.66;1886953;75;28137;-63
2022/07/20 00:11:23;;;;;;;2.90;2.80;;;;;;;33.22;34.63;99158.30;1864452;75;32948;-62
2022/07/20 00:14:11;;;;;;;3.05;2.80;;;;;;;33.21;34.68;99158.86;1896243;75;28094;-62
2022/07/20 00:17:00;;;;;;;3.30;3.00;;;;;;;33.20;34.70;99164.19;1879356;75;28209;-62
2022/07/20 00:19:48;;;;;;;3.02;2.72;;;;;;;33.20;34.74;99161.97;1883544;75;28123;-62
2022/07/20 00:22:38;;;;;;;2.98;2.77;;;;;;;33.22;34.72;99167.48;1871967;75;28079;-62
2022/07/20 00:25:27;;;;;;;3.07;2.80;;;;;;;33.22;34.72;99163.87;1890948;75;28133;-62
2022/07/20 00:28:15;;;;;;;3.10;2.90;;;;;;;33.20;34.73;99163.36;1878382;75;28069;-62
2022/07/20 00:31:05;;;;;;;2.77;2.67;;;;;;;33.19;34.80;99158.91;1868493;76;28723;-61
2022/07/20 00:33:53;;;;;;;2.98;2.70;;;;;;;33.18;34.83;99166.47;1906798;73;28050;-61
2022/07/20 00:36:42;;;;;;;2.70;2.60;;;;;;;33.23;34.82;99166.36;1885797;75;33022;-62
2022/07/20 00:39:30;;;;;;;3.08;2.90;;;;;;;33.22;34.78;99170.27;1882285;75;28180;-62
2022/07/20 00:42:18;;;;;;;3.00;2.80;;;;;;;33.21;34.85;99163.63;1871805;75;28164;-62
2022/07/20 00:45:09;;;;;;;2.87;2.67;;;;;;;33.21;34.84;99167.21;1879463;75;28682;-61
2022/07/20 00:47:57;;;;;;;2.90;2.72;;;;;;;33.21;34.89;99170.00;1860989;75;28219;-62
2022/07/20 00:50:46;;;;;;;2.80;2.60;;;;;;;33.20;34.88;99164.75;1887598;75;28144;-62
2022/07/20 00:53:35;;;;;;;2.83;2.73;;;;;;;33.19;34.89;99165.31;1876681;75;28176;-61
2022/07/20 00:56:23;;;;;;;2.70;2.60;;;;;;;33.19;34.93;99168.09;1886728;75;37190;-62
2022/07/20 00:59:13;;;;;;;3.02;2.80;;;;;;;33.19;35.03;99174.23;1892422;75;28039;-62
2022/07/20 01:02:01;;;;;;;2.90;2.80;;;;;;;33.19;35.03;99175.63;1856811;76;32076;-63
2022/07/20 01:04:49;;;;;;;2.85;2.70;;;;;;;33.18;35.05;99175.38;1868477;76;28157;-63
2022/07/20 01:07:38;;;;;;;3.37;2.80;;;;;;;33.18;35.03;99181.78;1878229;75;31328;-62
2022/07/20 01:10:27;;;;;;;2.75;2.60;;;;;;;33.20;35.02;99178.11;1873251;75;28434;-62
2022/07/20 01:13:15;;;;;;;3.20;3.00;;;;;;;33.19;34.97;99185.36;1874151;75;28110;-62
2022/07/20 01:16:04;;;;;;;2.90;2.70;;;;;;;33.17;34.99;99182.07;1883410;75;28104;-61
2022/07/20 01:18:52;;;;;;;3.20;3.00;;;;;;;33.17;35.03;99191.81;1876072;75;28079;-63
2022/07/20 01:21:41;;;;;;;3.10;2.90;;;;;;;33.20;34.96;99192.59;1890489;75;28077;-62
2022/07/20 01:24:30;;;;;;;2.85;2.75;;;;;;;33.19;34.96;99190.37;1872435;75;28038;-62
2022/07/20 01:27:18;;;;;;;2.77;2.65;;;;;;;33.20;34.94;99183.68;1879483;75;28035;-62
2022/07/20 01:30:08;;;;;;;3.07;2.87;;;;;;;33.20;34.92;99185.07;1888741;75;28168;-63
2022/07/20 01:32:57;;;;;;;2.70;2.60;;;;;;;33.18;34.96;99187.91;1878461;74;28075;-62
2022/07/20 01:35:46;;;;;;;3.00;2.80;;;;;;;33.19;34.92;99192.33;1895788;73;28024;-62
2022/07/20 01:38:34;;;;;;;3.70;3.02;;;;;;;33.19;34.94;99193.72;1870916;75;28190;-62
2022/07/20 01:41:23;;;;;;;2.85;2.75;;;;;;;33.16;34.99;99192.97;1877554;75;28147;-62
2022/07/20 01:44:11;;;;;;;3.00;2.80;;;;;;;33.16;34.95;99194.36;1886923;75;28141;-63
2022/07/20 01:47:00;;;;;;;2.90;2.70;;;;;;;33.15;34.91;99192.14;1873057;75;28183;-63
2022/07/20 01:49:48;;;;;;;3.47;2.90;;;;;;;33.14;34.96;99198.83;1878300;75;28187;-64
2022/07/20 01:52:37;;;;;;;2.80;2.70;;;;;;;33.14;35.06;99203.59;1891077;75;28139;-63
2022/07/20 01:55:26;;;;;;;3.10;2.90;;;;;;;33.14;35.04;99203.59;1884160;75;28093;-63
2022/07/20 01:58:14;;;;;;;3.17;2.87;;;;;;;33.14;35.09;99206.38;1864694;75;28236;-63
2022/07/20 02:01:03;;;;;;;3.30;2.92;;;;;;;33.14;35.13;99200.22;1887126;75;28234;-63
2022/07/20 02:03:51;;;;;;;3.20;3.00;;;;;;;33.16;35.15;99199.93;1877629;75;29056;-63
2022/07/20 02:06:39;;;;;;;3.08;2.87;;;;;;;33.09;35.21;99198.97;1883971;75;28045;-63
2022/07/20 02:09:28;;;;;;;3.08;2.87;;;;;;;33.08;35.27;99207.61;1879220;75;28107;-63
2022/07/20 02:12:16;;;;;;;2.80;2.60;;;;;;;33.09;35.28;99203.70;1874613;75;28134;-62
2022/07/20 02:15:08;;;;;;;3.08;2.77;;;;;;;33.10;35.25;99210.34;1870769;75;28234;-62
2022/07/20 02:17:56;;;;;;;3.20;3.00;;;;;;;33.09;35.23;99203.14;1868479;76;28226;-62
2022/07/20 02:20:44;;;;;;;2.90;2.77;;;;;;;33.09;35.24;99210.09;1878528;75;28115;-62
2022/07/20 02:23:33;;;;;;;3.37;3.10;;;;;;;33.06;35.24;99200.14;1878395;75;28310;-62
2022/07/20 02:26:21;;;;;;;2.90;2.80;;;;;;;33.06;35.30;99200.97;1877507;75;28102;-62
2022/07/20 02:29:10;;;;;;;3.00;2.90;;;;;;;33.08;35.31;99193.69;1882611;75;28082;-62
2022/07/20 02:31:58;;;;;;;3.30;3.00;;;;;;;33.05;35.31;99197.92;1879875;75;28109;-62
2022/07/20 02:34:46;;;;;;;3.20;3.00;;;;;;;33.07;35.31;99197.62;1880424;74;28129;-63
2022/07/20 02:37:35;;;;;;;3.27;2.90;;;;;;;33.04;35.32;99197.67;1874078;75;28124;-62
2022/07/20 02:40:23;;;;;;;2.70;2.60;;;;;;;33.03;35.36;99192.41;1879213;74;28127;-62
2022/07/20 02:43:12;;;;;;;3.00;2.80;;;;;;;33.03;35.35;99197.41;1864782;75;28041;-63
2022/07/20 02:46:00;;;;;;;3.10;2.90;;;;;;;33.02;35.40;99208.86;1879318;75;28121;-63
2022/07/20 02:48:49;;;;;;;3.50;2.83;;;;;;;33.01;35.51;99209.42;1884645;75;28248;-62
2022/07/20 02:51:37;;;;;;;3.02;2.80;;;;;;;33.01;35.51;99209.42;1877588;75;28222;-62
2022/07/20 02:54:26;;;;;;;2.92;2.72;;;;;;;32.99;35.47;99217.80;1876441;75;28032;-63
2022/07/20 02:57:14;;;;;;;3.40;3.20;;;;;;;32.97;35.53;99214.50;1876186;75;28221;-63
2022/07/20 03:00:04;;;;;;;3.22;3.02;;;;;;;32.99;35.58;99210.28;1872673;75;28214;-63
2022/07/20 03:02:52;;;;;;;3.25;2.95;;;;;;;32.98;35.54;99211.98;1890578;75;28191;-64
2022/07/20 03:05:41;;;;;;;3.12;2.92;;;;;;;32.97;35.53;99214.50;1890376;75;28164;-62
2022/07/20 03:08:29;;;;;;;2.80;2.70;;;;;;;32.96;35.51;99208.66;1873165;75;28037;-63
2022/07/20 03:11:18;;;;;;;3.15;2.95;;;;;;;32.95;35.50;99216.22;1859174;75;28192;-63
2022/07/20 03:14:06;;;;;;;3.30;3.10;;;;;;;32.97;35.53;99222.29;1890641;75;30168;-62
2022/07/20 03:16:55;;;;;;;3.05;2.95;;;;;;;32.96;35.54;99230.37;1872559;75;28790;-62
2022/07/20 03:19:45;;;;;;;3.10;2.90;;;;;;;32.93;35.57;99231.56;1886523;75;31081;-62
2022/07/20 03:22:33;;;;;;;3.08;2.87;;;;;;;32.95;35.55;99231.52;1868351;75;28087;-62
2022/07/20 03:25:23;;;;;;;2.90;2.80;;;;;;;32.95;35.56;99227.91;1874518;75;28035;-62
2022/07/20 03:28:11;;;;;;;2.92;2.80;;;;;;;32.93;35.67;99238.52;1888781;75;28103;-62
2022/07/20 03:30:59;;;;;;;3.30;3.10;;;;;;;32.92;35.66;99232.69;1885237;75;28204;-63
2022/07/20 03:33:47;;;;;;;3.30;3.10;;;;;;;32.91;35.63;99234.64;1864779;74;28163;-63
2022/07/20 03:36:36;;;;;;;3.02;2.87;;;;;;;32.92;35.62;99234.08;1884792;74;28148;-61
2022/07/20 03:39:25;;;;;;;2.98;2.77;;;;;;;32.91;35.61;99238.81;1871940;75;28079;-62
2022/07/20 03:42:13;;;;;;;3.10;2.90;;;;;;;32.92;35.57;99245.21;1869726;75;28158;-63
2022/07/20 03:45:02;;;;;;;3.15;2.95;;;;;;;32.89;35.58;99247.21;1895219;75;28281;-62
2022/07/20 03:47:50;;;;;;;2.90;2.70;;;;;;;32.92;35.57;99254.95;1876658;75;28612;-63
2022/07/20 03:50:38;;;;;;;3.10;2.90;;;;;;;32.89;35.53;99246.66;1886382;75;28157;-62
2022/07/20 03:53:27;;;;;;;3.20;3.00;;;;;;;32.91;35.51;99256.91;1880147;75;28046;-62
2022/07/20 03:56:15;;;;;;;3.12;3.00;;;;;;;32.92;35.57;99260.52;1874152;75;28161;-62
2022/07/20 03:59:03;;;;;;;3.12;2.83;;;;;;;32.90;35.58;99261.39;1856663;75;28152;-62
2022/07/20 04:01:52;;;;;;;3.50;2.80;;;;;;;32.91;35.56;99263.86;1888641;75;28580;-61
2022/07/20 04:04:40;;;;;;;3.12;2.92;;;;;;;32.93;35.51;99270.53;1896050;75;28215;-62
2022/07/20 04:07:28;;;;;;;3.05;2.90;;;;;;;32.94;35.48;99277.16;1867329;75;28118;-62
2022/07/20 04:10:17;;;;;;;3.27;2.97;;;;;;;32.92;35.49;99281.39;1881228;75;28712;-62
2022/07/20 04:13:06;;;;;;;3.47;2.90;;;;;;;32.91;35.53;99286.72;1891025;75;28030;-62
2022/07/20 04:15:55;;;;;;;3.25;3.05;;;;;;;32.93;35.50;99291.40;1888475;75;28099;-61
2022/07/20 04:18:43;;;;;;;2.98;2.80;;;;;;;32.94;35.47;99298.59;1884430;75;28028;-62
2022/07/20 04:21:31;;;;;;;2.90;2.80;;;;;;;32.96;35.49;99306.06;1884685;75;28091;-63
2022/07/20 04:24:20;;;;;;;3.17;2.98;;;;;;;32.94;35.54;99309.17;1889458;75;28197;-63
2022/07/20 04:27:08;;;;;;;3.08;2.87;;;;;;;32.94;35.58;99306.39;1886907;75;28160;-63
2022/07/20 04:29:57;;;;;;;3.22;2.92;;;;;;;32.95;35.63;99314.17;1876587;73;28249;-61
2022/07/20 04:32:45;;;;;;;3.00;2.90;;;;;;;32.93;35.56;99313.07;1868388;74;28229;-63
2022/07/20 04:35:33;;;;;;;3.08;2.90;;;;;;;32.96;35.60;99311.08;1880035;73;28160;-62
2022/07/20 04:38:22;;;;;;;3.10;2.90;;;;;;;32.97;35.64;99320.25;1881144;75;28177;-62
2022/07/20 04:41:10;;;;;;;3.30;3.10;;;;;;;32.97;35.62;99317.47;1871482;75;28219;-62
2022/07/20 04:43:58;;;;;;;3.42;3.12;;;;;;;32.96;35.59;99318.59;1871296;75;28195;-62
2022/07/20 04:46:47;;;;;;;3.20;3.00;;;;;;;32.94;35.69;99313.34;1878967;75;28160;-63
2022/07/20 04:49:35;;;;;;;3.33;3.12;;;;;;;32.95;35.70;99316.40;1881949;75;28205;-62
2022/07/20 04:52:24;;;;;;;2.85;2.65;;;;;;;32.98;35.68;99320.53;1883309;73;28126;-62
2022/07/20 04:55:12;;;;;;;3.30;3.10;;;;;;;32.99;35.73;99319.38;1885769;75;28096;-62
2022/07/20 04:58:00;;;;;;;3.20;3.00;;;;;;;33.00;35.76;99322.43;1866925;75;28045;-62
2022/07/20 05:00:49;;;;;;;3.25;3.05;;;;;;;32.97;35.77;99326.66;1878811;74;28130;-62
2022/07/20 05:03:37;;;;;;;3.30;3.10;;;;;;;32.98;35.80;99324.11;1910291;73;28077;-62
2022/07/20 05:06:25;;;;;;;3.33;2.90;;;;;;;32.97;35.83;99330.00;1897173;74;28177;-63
2022/07/20 05:09:14;;;;;;;3.60;3.02;;;;;;;32.98;35.83;99324.70;1909924;74;28159;-63
2022/07/20 05:12:03;;;;;;;3.10;2.90;;;;;;;32.99;35.82;99322.16;1903397;74;28175;-62
2022/07/20 05:14:51;;;;;;;3.90;3.30;;;;;;;32.99;35.86;99329.12;1884257;75;28160;-63
2022/07/20 05:17:39;;;;;;;3.50;3.20;;;;;;;32.96;35.91;99331.11;1895818;74;28111;-62
2022/07/20 05:20:28;;;;;;;3.37;3.17;;;;;;;32.97;35.92;99332.22;1899297;74;28261;-62
2022/07/20 05:23:16;;;;;;;3.12;2.92;;;;;;;32.95;35.98;99334.48;1896328;74;28160;-63
2022/07/20 05:26:05;;;;;;;3.30;3.10;;;;;;;32.93;36.04;99327.58;1894331;73;28170;-65
2022/07/20 05:28:54;;;;;;;3.60;3.30;;;;;;;32.91;36.07;99324.28;1915240;73;28356;-65
2022/07/20 05:31:42;;;;;;;3.85;3.47;;;;;;;32.85;36.10;99324.93;1905886;74;28159;-65
2022/07/20 05:34:31;;;;;;;3.50;3.12;;;;;;;32.85;36.12;99329.66;1887842;74;28149;-65
2022/07/20 05:37:19;;;;;;;3.62;3.33;;;;;;;32.85;36.15;99329.66;1914788;73;28140;-63
2022/07/20 05:40:09;;;;;;;4.00;3.52;;;;;;;32.78;36.24;99323.12;1897962;73;28225;-63
2022/07/20 05:42:57;;;;;;;3.63;3.43;;;;;;;32.71;36.31;99329.64;1894306;74;28164;-64
2022/07/20 05:45:46;;;;;;;3.40;3.20;;;;;;;32.72;36.36;99330.72;1903231;74;28150;-64
2022/07/20 05:48:34;;;;;;;4.20;3.50;;;;;;;32.73;36.42;99332.94;1897014;74;28035;-64
2022/07/20 05:51:23;;;;;;;4.10;3.65;;;;;;;32.69;36.59;99336.91;1910213;74;28165;-64
2022/07/20 05:54:11;;;;;;;3.93;3.60;;;;;;;32.61;36.67;99332.04;1883422;74;28196;-63
2022/07/20 05:56:59;;;;;;;3.50;3.33;;;;;;;32.49;36.90;99333.61;1901396;74;28108;-63
2022/07/20 05:59:49;;;;;;;3.60;3.40;;;;;;;32.46;36.98;99339.80;1895528;74;28048;-63
2022/07/20 06:02:38;;;;;;;3.70;3.50;;;;;;;32.49;36.96;99339.16;1890699;74;28212;-63
2022/07/20 06:05:27;;;;;;;3.98;3.58;;;;;;;32.50;36.97;99340.86;1884140;75;28185;-63
2022/07/20 06:08:15;;;;;;;4.17;3.75;;;;;;;32.46;37.39;99342.02;1867320;75;28246;-63
2022/07/20 06:11:04;;;;;;;5.05;3.95;;;;;;;32.44;37.49;99337.89;1880251;75;28383;-62
2022/07/20 06:13:52;;;;;;;3.80;3.58;;;;;;;32.37;37.58;99337.45;1871362;74;28292;-63
2022/07/20 06:16:41;;;;;;;4.10;3.80;;;;;;;32.43;37.58;99339.00;1883918;75;28716;-63
2022/07/20 06:19:29;;;;;;;3.90;3.70;;;;;;;32.41;37.53;99329.59;1870152;75;28117;-64
2022/07/20 06:22:17;;;;;;;3.90;3.70;;;;;;;32.44;37.45;99334.52;1880360;75;28167;-63
2022/07/20 06:25:07;;;;;;;3.98;3.70;;;;;;;32.44;37.38;99326.77;1879385;75;28292;-66
2022/07/20 06:27:58;;;;;;;4.22;3.62;;;;;;;32.42;37.33;99327.05;1870815;75;28257;-63
2022/07/20 06:30:45;;;;;;;3.93;3.63;;;;;;;32.45;37.31;99320.05;1878681;75;28209;-64
2022/07/20 06:33:34;;;;;;;4.87;3.75;;;;;;;32.49;37.30;99326.12;1884127;75;28189;-63
2022/07/20 06:36:23;;;;;;;3.80;3.60;;;;;;;32.49;37.60;99324.73;1883775;75;28109;-64
2022/07/20 06:39:11;;;;;;;3.87;3.58;;;;;;;32.52;37.65;99325.53;1883899;75;28185;-63
2022/07/20 06:41:59;;;;;;;3.62;3.37;;;;;;;32.52;37.58;99323.30;1879188;75;28316;-63
2022/07/20 06:44:49;;;;;;;4.13;3.83;;;;;;;32.55;37.58;99326.31;1871969;75;28245;-63
2022/07/20 06:47:37;;;;;;;3.80;3.60;;;;;;;32.61;37.48;99329.25;1884194;75;28171;-63
2022/07/20 06:50:26;;;;;;;4.22;3.80;;;;;;;32.64;37.44;99323.09;1884241;75;28203;-64
2022/07/20 06:53:14;;;;;;;3.42;3.15;;;;;;;32.69;37.37;99327.18;1884266;75;28190;-63
2022/07/20 06:56:03;;;;;;;3.87;3.65;;;;;;;32.70;37.38;99328.81;1884227;75;28225;-62
2022/07/20 06:58:51;;;;;;;3.95;3.60;;;;;;;32.72;37.46;99320.18;1884391;75;28609;-63
2022/07/20 07:01:40;;;;;;;4.10;3.70;;;;;;;32.74;37.53;99330.44;1884432;75;28150;-62
2022/07/20 07:04:30;;;;;;;4.47;4.00;;;;;;;32.74;37.61;99316.52;1834823;77;28337;-63
2022/07/20 07:07:19;;;;;;;3.52;3.33;;;;;;;32.77;37.61;99317.87;1861851;76;32046;-64
2022/07/20 07:10:08;;;;;;;3.60;3.40;;;;;;;32.78;37.55;99318.94;1867666;76;28291;-62
2022/07/20 07:12:56;;;;;;;3.62;3.40;;;;;;;32.83;37.60;99319.41;1852310;76;28198;-63
2022/07/20 07:15:44;;;;;;;3.70;3.50;;;;;;;32.82;37.63;99316.36;1857260;76;28248;-63
2022/07/20 07:18:33;;;;;;;3.52;3.27;;;;;;;32.84;37.68;99320.48;1864074;76;28222;-63
2022/07/20 07:21:22;;;;;;;3.67;3.47;;;;;;;32.84;37.64;99323.86;1868735;76;28130;-63
2022/07/20 07:24:10;;;;;;;3.73;3.50;;;;;;;32.87;37.58;99317.66;1852838;76;28226;-63
2022/07/20 07:26:59;;;;;;;4.75;3.45;;;;;;;32.89;37.51;99311.22;1846374;76;28124;-63
2022/07/20 07:29:48;;;;;;;3.62;3.42;;;;;;;32.88;37.53;99305.41;1868606;76;28657;-63
2022/07/20 07:32:37;;;;;;;3.77;3.50;;;;;;;32.88;37.54;99305.41;1868858;76;28129;-64
2022/07/20 07:35:25;;;;;;;3.40;3.20;;;;;;;32.91;37.55;99312.56;1868830;76;28220;-64
2022/07/20 07:38:14;;;;;;;3.27;3.07;;;;;;;32.88;37.58;99314.59;1868558;76;28252;-65
2022/07/20 07:41:03;;;;;;;3.40;3.20;;;;;;;32.89;37.52;99307.04;1868779;76;28109;-64
2022/07/20 07:43:52;;;;;;;3.10;2.90;;;;;;;32.91;37.50;99301.42;1868744;76;28327;-64
2022/07/20 07:46:40;;;;;;;3.58;3.35;;;;;;;32.93;37.43;99297.77;1849147;76;28184;-64
2022/07/20 07:49:29;;;;;;;3.15;2.95;;;;;;;32.91;37.47;99293.67;1868425;76;28181;-62
2022/07/20 07:52:17;;;;;;;3.20;3.00;;;;;;;32.95;37.45;99297.48;1868793;76;28163;-63
2022/07/20 07:55:06;;;;;;;3.30;3.10;;;;;;;32.97;37.44;99300.77;1868674;76;30076;-63
2022/07/20 07:57:55;;;;;;;3.33;3.12;;;;;;;32.98;37.42;99296.88;1868618;76;28193;-63
2022/07/20 08:00:44;;;;;;;3.50;3.27;;;;;;;32.99;37.38;99297.11;1868839;76;28229;-63
2022/07/20 08:03:32;;;;;;;4.17;3.37;;;;;;;32.99;37.29;99299.89;1868668;76;28259;-63
2022/07/20 08:06:22;;;;;;;3.55;3.30;;;;;;;32.98;37.36;99298.27;1883700;75;28241;-63
2022/07/20 08:09:10;;;;;;;3.27;3.08;;;;;;;32.96;37.37;99297.16;1810491;78;28390;-63
2022/07/20 08:11:59;;;;;;;3.33;3.02;;;;;;;32.98;37.38;99295.48;1831571;77;28329;-64
2022/07/20 08:14:47;;;;;;;3.40;3.10;;;;;;;32.99;37.34;99297.11;1880061;75;28118;-64
2022/07/20 08:17:36;;;;;;;3.10;2.90;;;;;;;32.95;37.54;99291.35;1884492;75;28188;-64
2022/07/20 08:20:24;;;;;;;3.10;2.90;;;;;;;32.98;37.49;99295.48;1860127;75;28409;-62
2022/07/20 08:23:12;;;;;;;3.20;2.90;;;;;;;32.98;37.45;99292.11;1884543;75;28104;-63
2022/07/20 08:26:01;;;;;;;2.60;2.50;;;;;;;32.99;37.46;99292.37;1863123;75;28195;-63
2022/07/20 08:28:50;;;;;;;3.33;3.12;;;;;;;33.00;37.51;99288.44;1883478;75;28181;-63
2022/07/20 08:31:38;;;;;;;3.33;3.10;;;;;;;32.93;37.48;99277.48;1868606;75;28306;-63
2022/07/20 08:34:28;;;;;;;2.90;2.80;;;;;;;33.02;37.49;99288.19;1795487;78;28306;-63
2022/07/20 08:37:17;;;;;;;3.25;3.05;;;;;;;33.03;37.55;99287.03;1842540;77;28300;-63
2022/07/20 08:40:06;;;;;;;3.08;2.95;;;;;;;33.00;37.55;99287.05;1824686;78;31471;-63
2022/07/20 08:42:55;;;;;;;3.22;3.00;;;;;;;33.04;37.52;99291.48;1801480;78;28226;-63
2022/07/20 08:45:46;;;;;;;3.20;3.10;;;;;;;33.03;37.49;99286.47;1794525;78;28347;-63
2022/07/20 08:48:41;;;;;;;2.83;2.72;;;;;;;33.05;37.51;99280.62;1823791;78;28425;-63
2022/07/20 08:51:30;;;;;;;3.00;2.90;;;;;;;33.06;37.54;99283.64;1824646;78;28460;-63
2022/07/20 08:54:19;;;;;;;3.25;2.98;;;;;;;33.07;37.48;99281.12;1824705;78;28347;-63
2022/07/20 08:57:16;;;;;;;3.10;2.90;;;;;;;33.07;37.45;99276.95;1807292;78;28469;-63
2022/07/20 09:00:06;;;;;;;3.15;2.98;;;;;;;33.09;37.48;99281.64;1808310;78;28379;-65
2022/07/20 09:02:57;;;;;;;3.02;2.83;;;;;;;33.07;37.44;99278.34;1821455;78;33298;-63
2022/07/20 09:05:46;;;;;;;3.27;3.07;;;;;;;33.07;37.53;99276.36;1823365;78;28358;-62
2022/07/20 09:08:34;;;;;;;3.40;3.20;;;;;;;33.09;37.46;99274.68;1813924;78;28340;-63
2022/07/20 09:11:25;;;;;;;3.12;2.92;;;;;;;33.06;37.48;99276.69;1826014;78;28199;-62
2022/07/20 09:14:16;;;;;;;3.20;3.00;;;;;;;33.04;37.49;99271.44;1855493;77;28638;-63
2022/07/20 09:17:19;;;;;;;3.05;2.90;;;;;;;32.98;37.67;99273.22;1852915;77;28120;-63
2022/07/20 09:20:09;;;;;;;3.27;3.07;;;;;;;33.01;37.66;99273.97;1846227;77;28287;-63
2022/07/20 09:23:03;;;;;;;3.17;2.98;;;;;;;33.02;37.56;99268.14;1853520;76;28110;-63
2022/07/20 09:25:54;;;;;;;2.95;2.75;;;;;;;33.04;37.51;99266.44;1849796;76;28149;-63
2022/07/20 09:28:49;;;;;;;3.08;2.87;;;;;;;33.06;37.50;99272.51;1868746;76;28947;-63
2022/07/20 09:31:39;;;;;;;3.87;2.75;;;;;;;33.05;37.49;99261.13;1868739;76;28200;-63
2022/07/20 09:34:28;;;;;;;3.10;2.90;;;;;;;33.06;37.48;99262.20;1848783;76;28414;-63
2022/07/20 09:37:18;;;;;;;2.92;2.72;;;;;;;33.09;37.48;99263.55;1829576;76;28397;-63
2022/07/20 09:40:08;;;;;;;3.00;2.80;;;;;;;33.09;37.38;99253.80;1868929;76;28154;-63
2022/07/20 09:42:56;;;;;;;3.10;2.90;;;;;;;33.08;37.40;99252.97;1832354;77;28226;-63
2022/07/20 09:45:45;;;;;;;2.83;2.70;;;;;;;33.10;37.38;99252.66;1868758;76;28305;-63
2022/07/20 09:48:36;;;;;;;3.00;2.90;;;;;;;33.11;37.35;99251.53;1856887;77;28109;-63
2022/07/20 09:51:30;;;;;;;3.10;2.80;;;;;;;33.13;37.29;99243.69;1843474;77;28219;-63
2022/07/20 09:54:19;;;;;;;2.83;2.70;;;;;;;33.12;37.32;99237.30;1844041;76;28224;-64
2022/07/20 09:57:09;;;;;;;3.02;2.83;;;;;;;33.12;37.32;99233.11;1856881;77;28129;-63
2022/07/20 09:59:58;;;;;;;3.12;2.92;;;;;;;33.13;37.30;99227.81;1868165;76;28176;-64
2022/07/20 10:02:57;;;;;;;2.85;2.70;;;;;;;33.12;37.27;99223.94;1856928;77;31403;-64
2022/07/20 10:05:45;;;;;;;2.87;2.67;;;;;;;33.15;37.28;99217.75;1839263;77;28161;-64
2022/07/20 10:08:33;;;;;;;2.92;2.75;;;;;;;33.13;37.36;99218.08;1868788;76;28259;-65
2022/07/20 10:11:24;;;;;;;2.60;2.50;;;;;;;33.12;37.39;99213.63;1868631;76;28501;-64
2022/07/20 10:14:15;;;;;;;3.10;2.90;;;;;;;33.14;37.38;99214.73;1868598;76;28172;-65
2022/07/20 10:17:04;;;;;;;2.95;2.80;;;;;;;33.12;37.41;99203.89;1849661;77;28229;-62
2022/07/20 10:19:52;;;;;;;2.60;2.50;;;;;;;33.12;37.43;99195.53;1868745;76;28201;-63
2022/07/20 10:22:41;;;;;;;2.83;2.70;;;;;;;33.12;37.46;99187.75;1868631;76;28242;-63
2022/07/20 10:25:31;;;;;;;2.98;2.77;;;;;;;33.13;37.48;99188.02;1868902;76;28160;-63
2022/07/20 10:28:35;;;;;;;2.85;2.72;;;;;;;33.15;37.48;99174.61;1850974;76;28117;-64
2022/07/20 10:31:23;;;;;;;2.90;2.70;;;;;;;33.15;37.52;99174.61;1829251;77;28157;-63
2022/07/20 10:34:15;;;;;;;3.00;2.80;;;;;;;33.10;37.62;99173.33;1856913;77;28216;-65
2022/07/20 10:37:27;;;;;;;2.70;2.50;;;;;;;33.13;37.60;99168.53;1868496;76;28116;-63
2022/07/20 10:40:18;;;;;;;2.80;2.60;;;;;;;33.12;37.59;99162.13;1868645;76;38504;-62
2022/07/20 10:43:15;;;;;;;2.92;2.80;;;;;;;33.12;37.61;99159.34;1846334;76;28275;-63
2022/07/20 10:46:06;;;;;;;3.10;3.00;;;;;;;33.14;37.64;99157.07;1868102;76;28142;-63
2022/07/20 10:48:55;;;;;;;2.83;2.70;;;;;;;33.15;37.49;99152.34;1838794;77;28124;-62
2022/07/20 10:51:45;;;;;;;2.90;2.70;;;;;;;33.16;37.57;99144.25;1856727;77;28125;-63
2022/07/20 10:54:35;;;;;;;2.72;2.58;;;;;;;33.18;37.56;99144.76;1863920;76;28300;-63
2022/07/20 10:57:25;;;;;;;2.90;2.70;;;;;;;33.18;37.43;99138.63;1855192;76;28174;-63
2022/07/20 11:00:15;;;;;;;2.70;2.50;;;;;;;33.17;37.50;99131.41;1814051;78;28408;-63
2022/07/20 11:03:06;;;;;;;2.70;2.50;;;;;;;33.19;37.45;99124.12;1856595;76;28235;-63
2022/07/20 11:06:03;;;;;;;2.47;2.37;;;;;;;33.19;37.48;99119.38;1845790;77;28160;-63
2022/07/20 11:08:54;;;;;;;2.87;2.67;;;;;;;33.20;37.41;99110.47;1852923;76;28230;-61
2022/07/20 11:11:43;;;;;;;2.60;2.50;;;;;;;33.19;37.41;99108.80;1851642;76;28237;-63
2022/07/20 11:14:35;;;;;;;2.67;2.57;;;;;;;33.21;37.37;99114.31;1868932;76;28940;-63
2022/07/20 11:17:24;;;;;;;2.92;2.67;;;;;;;33.22;37.29;99104.84;1868830;76;28235;-63
2022/07/20 11:20:17;;;;;;;2.70;2.60;;;;;;;33.23;37.30;99105.67;1868916;76;28160;-63
2022/07/20 11:23:06;;;;;;;2.90;2.70;;;;;;;33.25;37.34;99100.05;1868850;76;28125;-63
2022/07/20 11:26:00;;;;;;;2.70;2.50;;;;;;;33.21;37.35;99101.78;1868900;76;28241;-63
2022/07/20 11:28:57;;;;;;;2.70;2.52;;;;;;;33.22;37.29;99095.66;1868861;76;28134;-62
2022/07/20 11:31:46;;;;;;;2.72;2.62;;;;;;;33.21;37.42;99093.44;1868803;76;28191;-62
2022/07/20 11:34:34;;;;;;;2.42;2.33;;;;;;;33.21;37.47;99090.66;1868980;76;28222;-63
2022/07/20 11:37:25;;;;;;;2.70;2.60;;;;;;;33.22;37.53;99116.54;1848536;76;38750;-63
2022/07/20 11:40:17;;;;;;;2.70;2.50;;;;;;;33.19;37.19;99078.18;1868028;76;28199;-63
2022/07/20 11:43:13;;;;;;;2.80;2.60;;;;;;;33.20;37.20;99070.09;1863780;76;28202;-62
2022/07/20 11:46:14;;;;;;;3.37;2.60;;;;;;;33.15;37.20;99071.05;1864554;76;28234;-62
2022/07/20 11:49:05;;;;;;;2.70;2.60;;;;;;;33.10;37.26;99065.59;1858888;76;28187;-62
2022/07/20 11:51:56;;;;;;;2.50;2.40;;;;;;;33.08;37.30;99062.31;1868681;76;28146;-62
2022/07/20 11:54:45;;;;;;;2.52;2.40;;;;;;;33.05;37.45;99057.36;1868636;76;28212;-63
2022/07/20 11:57:33;;;;;;;3.08;2.87;;;;;;;33.03;37.50;99052.68;1868866;76;28202;-62
2022/07/20 12:00:25;;;;;;;2.50;2.40;;;;;;;33.00;37.51;99042.14;1850498;74;28153;-63
2022/07/20 12:03:14;;;;;;;4.60;2.65;;;;;;;33.01;37.54;99056.88;1865904;76;28980;-63
2022/07/20 12:06:05;;;;;;;2.90;2.60;;;;;;;32.99;37.58;99046.64;1868044;76;28148;-65
2022/07/20 12:09:06;;;;;;;2.50;2.30;;;;;;;33.04;37.52;99041.81;1870872;76;28282;-65
2022/07/20 12:12:03;;;;;;;2.80;2.60;;;;;;;33.11;37.45;99027.45;1861997;76;28172;-66
2022/07/20 12:14:52;;;;;;;2.80;2.70;;;;;;;33.13;37.34;99030.18;1858142;76;28172;-66
2022/07/20 12:17:54;;;;;;;2.52;2.40;;;;;;;33.19;37.21;99030.86;1878048;76;28139;-66
2022/07/20 12:20:45;;;;;;;2.40;2.30;;;;;;;33.20;37.12;99031.95;1855540;76;28429;-65
2022/07/20 12:23:35;;;;;;;2.40;2.30;;;;;;;33.21;37.04;99010.52;1878328;76;28168;-65
2022/07/20 12:26:33;;;;;;;2.50;2.40;;;;;;;33.22;37.00;99028.28;1860772;76;28183;-65
2022/07/20 12:29:26;;;;;;;2.72;2.52;;;;;;;33.25;36.97;99013.73;1878255;76;28120;-64
2022/07/20 12:32:17;;;;;;;2.70;2.60;;;;;;;33.24;36.94;99007.90;1878159;76;28113;-66
2022/07/20 12:35:08;;;;;;;2.47;2.37;;;;;;;33.28;36.86;99012.28;1878437;76;28251;-66
2022/07/20 12:37:58;;;;;;;2.27;2.17;;;;;;;33.28;36.77;99001.14;1878196;76;28160;-64
2022/07/20 12:40:51;;;;;;;2.80;2.60;;;;;;;33.29;36.76;99005.55;1846380;77;28301;-64
2022/07/20 12:43:41;;;;;;;2.47;2.37;;;;;;;33.30;36.65;99007.22;1853420;76;28120;-64
2022/07/20 12:46:30;;;;;;;2.75;2.55;;;;;;;33.31;36.66;98987.39;1878118;76;28223;-64
2022/07/20 12:49:27;;;;;;;2.50;2.40;;;;;;;33.32;36.58;98982.09;1878244;76;28207;-64
2022/07/20 12:52:15;;;;;;;2.52;2.33;;;;;;;33.32;36.56;98974.30;1878082;76;28128;-64
2022/07/20 12:55:05;;;;;;;2.60;2.50;;;;;;;33.33;36.52;98964.23;1878347;76;28200;-64
2022/07/20 12:57:53;;;;;;;2.80;2.50;;;;;;;33.33;36.53;98967.58;1855698;76;28187;-65
2022/07/20 13:00:41;;;;;;;2.42;2.33;;;;;;;33.34;36.45;98967.28;1878297;76;28109;-65
2022/07/20 13:03:30;;;;;;;2.50;2.40;;;;;;;33.33;36.39;98978.15;1858191;76;28270;-65
2022/07/20 13:06:18;;;;;;;2.70;2.50;;;;;;;33.34;36.39;98972.02;1878153;76;28129;-64
2022/07/20 13:09:07;;;;;;;2.50;2.40;;;;;;;33.35;36.37;98980.64;1855473;76;28304;-65
2022/07/20 13:11:55;;;;;;;2.45;2.35;;;;;;;33.36;36.30;98966.38;1878218;76;28226;-65
2022/07/20 13:14:44;;;;;;;2.70;2.50;;;;;;;33.36;36.27;98973.34;1878223;76;28230;-65
2022/07/20 13:17:33;;;;;;;2.67;2.40;;;;;;;33.36;36.25;98960.81;1874080;76;28174;-65
2022/07/20 13:20:22;;;;;;;2.62;2.42;;;;;;;33.37;36.21;98969.41;1865438;76;28170;-65
2022/07/20 13:23:10;;;;;;;2.65;2.55;;;;;;;33.35;36.17;98965.32;1863966;76;28312;-65